Time;durP1;ratioP1;P1;durP2;ratioP2;P2;SDS_P1;SDS_P2;PMS_P1;PMS_P2;Temp;Humidity;BMP_temperature;BMP_pressure;BME280_temperature;BME280_humidity;BME280_pressure;Samples;Min_cycle;Max_cycle;Signal;HPM_P1;HPM_P2
2021/09/08 00:01:32;;;;;;;10.48;6.00;;;;;;;;;;5095712;28;20112;-86
2021/09/08 00:03:58;;;;;;;10.52;5.18;;;;;;;;;;5094524;28;20024;-92
2021/09/08 00:06:25;;;;;;;10.77;5.53;;;;;;;;;;5096706;28;20477;-87
2021/09/08 00:08:51;;;;;;;9.35;5.57;;;;;;;;;;5094318;28;20024;-91
2021/09/08 00:11:18;;;;;;;9.95;5.72;;;;;;;;;;5095396;28;20502;-91
2021/09/08 00:13:44;;;;;;;10.10;5.00;;;;;;;;;;5095210;28;20177;-86
2021/09/08 00:16:10;;;;;;;10.48;5.38;;;;;;;;;;5094922;28;20028;-91
2021/09/08 00:18:36;;;;;;;11.88;5.40;;;;;;;;;;5096872;28;20576;-87
2021/09/08 00:21:02;;;;;;;12.10;5.03;;;;;;;;;;5094479;28;20044;-92
2021/09/08 00:23:29;;;;;;;10.93;5.00;;;;;;;;;;5096882;28;20026;-91
2021/09/08 00:25:55;;;;;;;13.00;5.03;;;;;;;;;;5096878;28;20020;-86
2021/09/08 00:28:21;;;;;;;10.98;5.68;;;;;;;;;;5094012;28;20032;-87
2021/09/08 00:30:48;;;;;;;9.85;5.40;;;;;;;;;;5096975;28;20174;-92
2021/09/08 00:33:14;;;;;;;10.02;5.53;;;;;;;;;;5093773;28;20496;-87
2021/09/08 00:35:40;;;;;;;9.98;5.30;;;;;;;;;;5093686;28;20070;-87
2021/09/08 00:38:09;;;;;;;9.85;4.60;;;;;;;;;;5093679;28;20480;-92
2021/09/08 00:40:36;;;;;;;10.52;4.93;;;;;;;;;;5095887;28;20028;-91
2021/09/08 00:43:02;;;;;;;10.13;5.15;;;;;;;;;;5094778;28;20111;-89
2021/09/08 00:45:28;;;;;;;9.60;5.38;;;;;;;;;;5094981;28;20030;-92
2021/09/08 00:47:54;;;;;;;8.57;4.45;;;;;;;;;;5093880;28;20026;-88
2021/09/08 00:50:20;;;;;;;11.95;5.07;;;;;;;;;;5093857;28;20024;-87
2021/09/08 00:52:47;;;;;;;8.05;5.03;;;;;;;;;;5093727;28;20052;-88
2021/09/08 00:55:14;;;;;;;9.73;4.88;;;;;;;;;;5094559;28;20350;-87
2021/09/08 00:57:40;;;;;;;8.02;4.63;;;;;;;;;;5093240;28;20032;-91
2021/09/08 01:00:07;;;;;;;9.85;5.03;;;;;;;;;;5094184;28;20131;-92
2021/09/08 01:02:33;;;;;;;9.40;5.00;;;;;;;;;;5095855;28;20377;-87
2021/09/08 01:04:59;;;;;;;8.95;4.80;;;;;;;;;;5093223;28;20060;-90
2021/09/08 01:07:26;;;;;;;8.57;4.95;;;;;;;;;;5093408;28;20020;-91
2021/09/08 01:09:52;;;;;;;11.18;5.60;;;;;;;;;;5095840;28;20020;-87
2021/09/08 01:12:18;;;;;;;7.95;4.70;;;;;;;;;;5098027;28;20020;-87
2021/09/08 01:14:45;;;;;;;10.52;5.40;;;;;;;;;;5097593;28;20073;-92
2021/09/08 01:17:12;;;;;;;10.27;5.00;;;;;;;;;;5101680;28;20028;-90
2021/09/08 01:19:38;;;;;;;9.88;5.15;;;;;;;;;;5097354;28;20024;-91
2021/09/08 01:22:04;;;;;;;10.07;3.92;;;;;;;;;;5100066;28;20023;-92
2021/09/08 01:24:31;;;;;;;10.35;5.00;;;;;;;;;;5099371;28;20028;-91
2021/09/08 01:26:58;;;;;;;11.07;4.40;;;;;;;;;;5097116;28;20024;-91
2021/09/08 01:29:24;;;;;;;9.18;4.07;;;;;;;;;;5099341;28;20027;-91
2021/09/08 01:31:58;;;;;;;8.85;4.25;;;;;;;;;;5097943;28;20044;-85
2021/09/08 01:34:25;;;;;;;7.78;4.55;;;;;;;;;;5097172;28;20036;-86
2021/09/08 01:36:52;;;;;;;8.65;4.22;;;;;;;;;;5098078;28;20025;-91
2021/09/08 01:39:19;;;;;;;10.45;4.30;;;;;;;;;;5098658;28;20032;-90
2021/09/08 01:41:45;;;;;;;9.80;5.50;;;;;;;;;;5097120;28;20031;-90
2021/09/08 01:44:12;;;;;;;8.13;4.40;;;;;;;;;;5099293;28;20050;-89
2021/09/08 01:46:38;;;;;;;12.40;5.30;;;;;;;;;;5097231;28;20047;-91
2021/09/08 01:49:05;;;;;;;9.30;3.92;;;;;;;;;;5097158;28;20076;-91
2021/09/08 01:51:31;;;;;;;10.15;5.35;;;;;;;;;;5099353;28;20024;-86
2021/09/08 01:53:57;;;;;;;9.90;5.10;;;;;;;;;;5096492;28;20048;-87
2021/09/08 01:56:23;;;;;;;10.30;4.95;;;;;;;;;;5097277;28;20027;-86
2021/09/08 01:58:49;;;;;;;9.43;4.20;;;;;;;;;;5096714;28;20461;-86
2021/09/08 02:01:15;;;;;;;7.03;4.18;;;;;;;;;;5096916;28;20028;-86
2021/09/08 02:03:41;;;;;;;12.07;5.15;;;;;;;;;;5097221;28;20392;-86
2021/09/08 02:06:18;;;;;;;7.32;3.80;;;;;;;;;;5096725;28;20024;-91
2021/09/08 02:08:44;;;;;;;11.70;4.93;;;;;;;;;;5096680;28;20052;-86
2021/09/08 02:11:10;;;;;;;8.82;4.93;;;;;;;;;;5096392;28;20049;-85
2021/09/08 02:13:36;;;;;;;7.07;4.20;;;;;;;;;;5097215;28;20032;-86
2021/09/08 02:16:02;;;;;;;14.38;4.38;;;;;;;;;;5097469;28;20392;-85
2021/09/08 02:18:28;;;;;;;9.75;4.10;;;;;;;;;;5096341;28;20032;-90
2021/09/08 02:20:55;;;;;;;9.30;4.07;;;;;;;;;;5095712;28;20024;-86
2021/09/08 02:23:21;;;;;;;8.77;4.97;;;;;;;;;;5096268;28;20098;-86
2021/09/08 02:25:47;;;;;;;9.85;4.70;;;;;;;;;;5100151;28;20020;-89
2021/09/08 02:28:18;;;;;;;9.95;4.47;;;;;;;;;;5096922;28;20115;-86
2021/09/08 02:30:44;;;;;;;8.00;3.83;;;;;;;;;;5099781;28;20031;-90
2021/09/08 02:33:10;;;;;;;11.38;4.15;;;;;;;;;;5096585;28;20027;-90
2021/09/08 02:35:37;;;;;;;9.50;3.95;;;;;;;;;;5096589;28;20028;-91
2021/09/08 02:38:03;;;;;;;8.90;4.75;;;;;;;;;;5096089;28;20028;-86
2021/09/08 02:40:29;;;;;;;8.60;4.22;;;;;;;;;;5098612;28;20484;-88
2021/09/08 02:42:55;;;;;;;7.18;4.28;;;;;;;;;;5095802;28;20066;-86
2021/09/08 02:45:21;;;;;;;6.72;3.70;;;;;;;;;;5096072;28;20497;-86
2021/09/08 02:47:48;;;;;;;6.93;4.10;;;;;;;;;;5096629;28;20024;-90
2021/09/08 02:50:14;;;;;;;7.43;4.55;;;;;;;;;;5097695;28;20024;-90
2021/09/08 02:52:40;;;;;;;8.18;4.18;;;;;;;;;;5095124;28;20101;-86
2021/09/08 02:55:07;;;;;;;7.97;3.90;;;;;;;;;;5095537;28;20020;-90
2021/09/08 02:57:33;;;;;;;7.90;4.13;;;;;;;;;;5095514;28;20149;-86
2021/09/08 02:59:59;;;;;;;11.88;4.38;;;;;;;;;;5095272;28;20518;-90
2021/09/08 03:02:25;;;;;;;9.50;4.50;;;;;;;;;;5095517;28;20050;-86
2021/09/08 03:04:51;;;;;;;10.05;4.28;;;;;;;;;;5095170;28;20024;-86
2021/09/08 03:07:17;;;;;;;9.00;4.60;;;;;;;;;;5095237;28;20028;-85
2021/09/08 03:09:44;;;;;;;7.28;3.40;;;;;;;;;;5096819;28;20128;-91
2021/09/08 03:12:10;;;;;;;8.70;4.13;;;;;;;;;;5095329;28;20067;-85
2021/09/08 03:14:36;;;;;;;7.85;4.38;;;;;;;;;;5095093;28;20112;-86
2021/09/08 03:17:02;;;;;;;8.80;4.03;;;;;;;;;;5095064;28;20025;-91
2021/09/08 03:19:29;;;;;;;12.75;3.90;;;;;;;;;;5096358;28;20050;-91
2021/09/08 03:21:55;;;;;;;7.10;3.90;;;;;;;;;;5097128;28;20027;-86
2021/09/08 03:24:21;;;;;;;7.00;3.80;;;;;;;;;;5095283;28;20020;-91
2021/09/08 03:26:47;;;;;;;11.00;4.55;;;;;;;;;;5096072;28;20031;-85
2021/09/08 03:29:14;;;;;;;9.70;5.00;;;;;;;;;;5094720;28;20020;-90
2021/09/08 03:31:40;;;;;;;8.98;4.38;;;;;;;;;;5094571;28;20055;-90
2021/09/08 03:34:06;;;;;;;8.82;3.90;;;;;;;;;;5095765;28;20066;-88
2021/09/08 03:36:33;;;;;;;6.93;3.60;;;;;;;;;;5095982;28;20024;-92
2021/09/08 03:38:59;;;;;;;9.95;4.47;;;;;;;;;;5094575;28;20485;-86
2021/09/08 03:41:25;;;;;;;7.60;4.20;;;;;;;;;;5097322;28;20021;-90
2021/09/08 03:43:52;;;;;;;11.18;4.53;;;;;;;;;;5094977;28;20024;-91
2021/09/08 03:46:18;;;;;;;11.18;4.45;;;;;;;;;;5094917;28;20020;-87
2021/09/08 03:48:44;;;;;;;8.60;4.88;;;;;;;;;;5095743;28;20039;-91
2021/09/08 03:51:11;;;;;;;6.40;3.30;;;;;;;;;;5096053;28;20028;-90
2021/09/08 03:53:37;;;;;;;7.55;3.83;;;;;;;;;;5094757;28;20036;-91
2021/09/08 03:56:04;;;;;;;9.73;4.60;;;;;;;;;;5094322;28;20089;-90
2021/09/08 03:58:30;;;;;;;6.63;3.72;;;;;;;;;;5094491;28;20152;-90
2021/09/08 04:00:56;;;;;;;9.10;4.35;;;;;;;;;;5096035;28;20465;-91
2021/09/08 04:03:23;;;;;;;9.40;4.75;;;;;;;;;;5094645;28;20388;-86
2021/09/08 04:05:49;;;;;;;10.75;4.68;;;;;;;;;;5094460;28;20027;-87
2021/09/08 04:08:15;;;;;;;12.55;4.18;;;;;;;;;;5094029;28;20111;-88
2021/09/08 04:10:41;;;;;;;10.88;4.97;;;;;;;;;;5094096;28;20028;-90
2021/09/08 04:13:07;;;;;;;10.88;3.97;;;;;;;;;;5094128;28;20036;-88
2021/09/08 04:15:34;;;;;;;11.13;4.07;;;;;;;;;;5093991;28;20024;-87
2021/09/08 04:18:00;;;;;;;12.38;4.43;;;;;;;;;;5093868;28;20503;-86
2021/09/08 04:20:26;;;;;;;8.27;4.25;;;;;;;;;;5093916;28;20055;-90
2021/09/08 04:22:52;;;;;;;9.82;4.80;;;;;;;;;;5094033;28;20162;-86
2021/09/08 04:25:19;;;;;;;9.48;4.13;;;;;;;;;;5094912;28;20027;-90
2021/09/08 04:27:45;;;;;;;10.90;4.53;;;;;;;;;;5093804;28;20020;-86
2021/09/08 04:30:11;;;;;;;12.13;5.18;;;;;;;;;;5094321;28;20028;-84
2021/09/08 04:32:38;;;;;;;8.85;4.68;;;;;;;;;;5093868;28;20036;-87
2021/09/08 04:35:04;;;;;;;10.52;4.30;;;;;;;;;;5094437;28;20020;-85
2021/09/08 04:37:32;;;;;;;6.82;3.58;;;;;;;;;;5093787;28;20032;-86
2021/09/08 04:39:58;;;;;;;8.60;3.97;;;;;;;;;;5093750;28;20024;-87
2021/09/08 04:42:24;;;;;;;9.90;4.88;;;;;;;;;;5093383;28;20470;-91
2021/09/08 04:44:50;;;;;;;9.27;4.85;;;;;;;;;;5093391;28;20396;-90
2021/09/08 04:47:17;;;;;;;9.43;3.65;;;;;;;;;;5093807;28;20020;-90
2021/09/08 04:49:43;;;;;;;13.05;4.55;;;;;;;;;;5093672;28;20484;-86
2021/09/08 04:52:09;;;;;;;9.93;4.45;;;;;;;;;;5093564;28;20479;-84
2021/09/08 04:54:37;;;;;;;10.90;5.55;;;;;;;;;;5094728;28;20073;-84
2021/09/08 04:57:04;;;;;;;10.57;4.30;;;;;;;;;;5095381;28;20032;-92
2021/09/08 04:59:30;;;;;;;8.77;4.47;;;;;;;;;;5094132;28;20141;-87
2021/09/08 05:01:56;;;;;;;13.00;5.65;;;;;;;;;;5093944;28;20096;-86
2021/09/08 05:04:22;;;;;;;10.25;4.35;;;;;;;;;;5093098;28;20124;-86
2021/09/08 05:06:50;;;;;;;8.27;4.63;;;;;;;;;;5093599;28;20101;-83
2021/09/08 05:09:16;;;;;;;14.40;5.18;;;;;;;;;;5093333;28;20024;-86
2021/09/08 05:11:42;;;;;;;11.02;4.88;;;;;;;;;;5093180;28;20036;-85
2021/09/08 05:14:09;;;;;;;13.70;5.68;;;;;;;;;;5093250;28;20036;-87
2021/09/08 05:16:35;;;;;;;16.70;5.55;;;;;;;;;;5093033;28;20054;-86
2021/09/08 05:19:02;;;;;;;10.75;5.90;;;;;;;;;;5093111;28;20032;-86
2021/09/08 05:21:28;;;;;;;13.82;5.75;;;;;;;;;;5093096;28;20016;-87
2021/09/08 05:23:54;;;;;;;10.05;5.18;;;;;;;;;;5092997;28;20115;-85
2021/09/08 05:26:21;;;;;;;14.77;5.82;;;;;;;;;;5093105;28;20051;-87
2021/09/08 05:28:47;;;;;;;14.40;5.95;;;;;;;;;;5093026;28;20034;-86
2021/09/08 05:31:13;;;;;;;20.83;5.93;;;;;;;;;;5093220;28;20111;-86
2021/09/08 05:33:39;;;;;;;12.60;5.10;;;;;;;;;;5093086;28;20032;-87
2021/09/08 05:36:05;;;;;;;16.65;6.85;;;;;;;;;;5093819;28;20024;-86
2021/09/08 05:38:32;;;;;;;19.08;6.35;;;;;;;;;;5093311;28;20020;-87
2021/09/08 05:40:58;;;;;;;18.58;6.88;;;;;;;;;;5092926;28;20059;-86
2021/09/08 05:43:24;;;;;;;12.88;6.85;;;;;;;;;;5094296;28;20062;-87
2021/09/08 05:45:50;;;;;;;13.20;6.43;;;;;;;;;;5093338;28;20032;-87
2021/09/08 05:48:17;;;;;;;19.95;7.03;;;;;;;;;;5092823;28;20435;-87
2021/09/08 05:50:43;;;;;;;12.25;5.97;;;;;;;;;;5092652;28;20040;-86
2021/09/08 05:53:09;;;;;;;25.98;6.97;;;;;;;;;;5092504;28;20131;-85
2021/09/08 05:55:35;;;;;;;15.73;6.32;;;;;;;;;;5093858;28;20038;-85
2021/09/08 05:58:01;;;;;;;12.07;5.82;;;;;;;;;;5096499;28;20027;-85
2021/09/08 06:00:27;;;;;;;11.50;4.82;;;;;;;;;;5096406;28;20035;-86
2021/09/08 06:02:53;;;;;;;11.02;5.05;;;;;;;;;;5096636;28;20065;-87
2021/09/08 06:05:20;;;;;;;18.00;5.18;;;;;;;;;;5098151;28;20027;-86
2021/09/08 06:07:46;;;;;;;9.38;4.95;;;;;;;;;;5097071;28;20032;-86
2021/09/08 06:10:17;;;;;;;18.63;3.65;;;;;;;;;;5096145;28;20035;-87
2021/09/08 06:12:43;;;;;;;6.20;3.17;;;;;;;;;;5096253;28;20506;-88
2021/09/08 18:03:28;;;;;;;21.58;6.95;;;;;;;;;;4907150;26;20050;-92
2021/09/08 18:05:55;;;;;;;11.07;5.80;;;;;;;;;;4977534;28;20169;-85
2021/09/08 18:08:21;;;;;;;12.70;6.10;;;;;;;;;;4977643;28;20019;-90
2021/09/08 18:10:47;;;;;;;13.07;5.38;;;;;;;;;;4976949;28;20033;-85
2021/09/08 18:13:13;;;;;;;12.25;5.43;;;;;;;;;;4976515;28;20066;-85
2021/09/08 18:15:40;;;;;;;11.75;5.55;;;;;;;;;;4978750;28;20117;-90
2021/09/08 18:18:06;;;;;;;9.32;5.10;;;;;;;;;;4988511;28;20035;-85
2021/09/08 18:20:33;;;;;;;14.95;5.60;;;;;;;;;;4979249;28;20027;-91
2021/09/08 18:22:59;;;;;;;18.08;6.85;;;;;;;;;;4979267;28;20030;-92
2021/09/08 18:25:26;;;;;;;16.02;7.38;;;;;;;;;;4978551;28;20098;-86
2021/09/08 18:27:52;;;;;;;16.30;6.25;;;;;;;;;;4977080;28;20096;-90
2021/09/08 18:30:18;;;;;;;14.80;7.40;;;;;;;;;;4976169;28;20095;-88
2021/09/08 18:32:45;;;;;;;18.50;7.50;;;;;;;;;;4976500;28;20112;-92
2021/09/08 18:35:11;;;;;;;18.73;8.23;;;;;;;;;;4976495;28;20487;-86
2021/09/08 18:37:43;;;;;;;17.02;8.43;;;;;;;;;;4976964;28;20159;-87
2021/09/08 18:40:10;;;;;;;16.08;7.90;;;;;;;;;;4976548;28;20035;-93
2021/09/08 18:42:36;;;;;;;21.75;8.90;;;;;;;;;;4976236;28;20396;-92
2021/09/08 18:45:02;;;;;;;25.08;9.35;;;;;;;;;;4976249;28;20037;-90
2021/09/08 18:47:28;;;;;;;18.00;9.52;;;;;;;;;;4977460;28;20030;-87
2021/09/08 18:49:54;;;;;;;21.33;9.70;;;;;;;;;;4976043;28;20098;-89
2021/09/08 18:52:23;;;;;;;29.52;10.05;;;;;;;;;;4975848;28;20486;-86
2021/09/08 18:54:49;;;;;;;21.20;10.93;;;;;;;;;;4975899;28;20043;-87
2021/09/08 18:57:15;;;;;;;24.48;9.82;;;;;;;;;;4976456;28;20494;-85
2021/09/08 18:59:41;;;;;;;24.52;10.30;;;;;;;;;;4977279;28;20027;-86
2021/09/08 19:02:09;;;;;;;19.80;9.32;;;;;;;;;;4977562;28;20180;-86
2021/09/08 19:04:35;;;;;;;20.02;9.55;;;;;;;;;;4975960;28;20023;-88
2021/09/08 19:07:01;;;;;;;19.73;9.68;;;;;;;;;;4976090;28;20391;-90
2021/09/08 19:09:27;;;;;;;22.55;11.70;;;;;;;;;;4976362;28;20073;-87
2021/09/08 19:11:53;;;;;;;26.73;11.90;;;;;;;;;;4976618;28;20058;-87
2021/09/08 19:14:20;;;;;;;30.33;13.05;;;;;;;;;;4975818;28;20034;-87
2021/09/08 19:16:46;;;;;;;26.48;12.07;;;;;;;;;;4975622;28;20089;-87
2021/09/08 19:19:12;;;;;;;24.40;12.88;;;;;;;;;;4975774;28;20034;-85
2021/09/08 19:21:38;;;;;;;21.40;11.75;;;;;;;;;;4975586;28;20027;-87
2021/09/08 19:24:04;;;;;;;21.85;11.05;;;;;;;;;;4975589;28;20034;-86
2021/09/08 19:26:30;;;;;;;23.88;11.35;;;;;;;;;;4975483;28;20027;-87
2021/09/08 19:28:56;;;;;;;20.80;10.63;;;;;;;;;;4975721;28;20027;-87
2021/09/08 19:31:23;;;;;;;21.35;9.10;;;;;;;;;;4975499;28;20114;-91
2021/09/08 19:33:49;;;;;;;17.95;8.70;;;;;;;;;;4975852;28;20039;-87
2021/09/08 19:36:15;;;;;;;19.88;8.50;;;;;;;;;;4975891;28;20221;-86
2021/09/08 19:38:41;;;;;;;24.38;8.55;;;;;;;;;;4975910;28;20070;-85
2021/09/08 19:41:08;;;;;;;16.17;8.95;;;;;;;;;;4975970;28;20105;-87
2021/09/08 19:43:35;;;;;;;13.45;8.35;;;;;;;;;;4975901;28;20031;-92
2021/09/08 19:46:01;;;;;;;18.77;8.80;;;;;;;;;;4977097;28;20033;-91
2021/09/08 19:48:27;;;;;;;17.33;9.25;;;;;;;;;;4974589;28;20081;-86
2021/09/08 19:50:53;;;;;;;14.20;7.93;;;;;;;;;;4975475;28;20031;-87
2021/09/08 19:53:19;;;;;;;16.88;9.32;;;;;;;;;;4975515;28;20066;-84
2021/09/08 19:55:45;;;;;;;16.17;9.45;;;;;;;;;;4976580;28;20501;-90
2021/09/08 19:58:11;;;;;;;16.15;9.18;;;;;;;;;;4976532;28;20531;-85
2021/09/08 20:00:37;;;;;;;21.23;8.60;;;;;;;;;;4975477;28;20471;-85
2021/09/08 20:03:04;;;;;;;16.67;9.15;;;;;;;;;;4976634;28;20051;-85
2021/09/08 20:05:30;;;;;;;17.58;8.55;;;;;;;;;;4975054;28;20030;-86
2021/09/08 20:07:56;;;;;;;19.27;8.20;;;;;;;;;;4975314;28;20030;-90
2021/09/08 20:10:22;;;;;;;18.80;9.00;;;;;;;;;;4979758;28;20065;-84
2021/09/08 20:12:48;;;;;;;16.58;8.93;;;;;;;;;;4987860;28;20479;-85
2021/09/08 20:15:15;;;;;;;15.35;8.32;;;;;;;;;;4976091;28;20133;-85
2021/09/08 20:17:42;;;;;;;17.48;8.27;;;;;;;;;;4975002;28;20034;-89
2021/09/08 20:20:09;;;;;;;17.52;8.70;;;;;;;;;;4975007;28;20035;-85
2021/09/08 20:22:35;;;;;;;17.15;9.13;;;;;;;;;;4975309;28;20043;-85
2021/09/08 20:25:01;;;;;;;20.48;8.95;;;;;;;;;;4974576;28;20089;-85
2021/09/08 20:27:28;;;;;;;16.88;8.77;;;;;;;;;;4974502;28;20062;-84
2021/09/08 20:29:54;;;;;;;17.88;9.45;;;;;;;;;;4975900;28;20018;-86
2021/09/08 20:32:20;;;;;;;17.38;9.48;;;;;;;;;;4975229;28;20027;-93
2021/09/08 20:34:46;;;;;;;14.55;8.95;;;;;;;;;;4975081;28;20097;-84
2021/09/08 20:37:12;;;;;;;21.05;10.38;;;;;;;;;;4974867;28;20034;-84
2021/09/08 20:39:38;;;;;;;21.98;11.13;;;;;;;;;;4974670;28;20034;-85
2021/09/08 20:42:04;;;;;;;21.67;9.77;;;;;;;;;;4976238;28;20130;-85
2021/09/08 20:44:30;;;;;;;18.02;10.85;;;;;;;;;;4974114;28;20400;-87
2021/09/08 20:46:56;;;;;;;18.23;10.32;;;;;;;;;;4974947;28;20023;-85
2021/09/08 20:49:23;;;;;;;18.40;9.48;;;;;;;;;;4975846;28;20113;-85
2021/09/08 20:51:49;;;;;;;21.42;8.73;;;;;;;;;;4974624;28;20392;-85
2021/09/08 20:54:15;;;;;;;14.27;8.32;;;;;;;;;;4975432;28;20502;-85
2021/09/08 20:56:41;;;;;;;16.92;8.75;;;;;;;;;;4974626;28;20026;-93
2021/09/08 20:59:07;;;;;;;17.08;9.32;;;;;;;;;;4974401;28;20038;-91
2021/09/08 21:01:33;;;;;;;18.35;10.00;;;;;;;;;;4974066;28;20176;-90
2021/09/08 21:03:59;;;;;;;19.60;9.75;;;;;;;;;;4974176;28;20126;-86
2021/09/08 21:06:26;;;;;;;18.85;8.75;;;;;;;;;;4974926;28;20383;-84
2021/09/08 21:08:52;;;;;;;18.23;8.77;;;;;;;;;;4974456;28;20121;-87
2021/09/08 21:11:18;;;;;;;18.15;9.18;;;;;;;;;;4974350;28;20034;-87
2021/09/08 21:13:45;;;;;;;19.00;8.45;;;;;;;;;;4974133;28;20495;-87
2021/09/08 21:16:11;;;;;;;18.52;8.93;;;;;;;;;;4973997;28;20066;-86
2021/09/08 21:18:37;;;;;;;19.98;9.25;;;;;;;;;;4974070;28;20031;-83
2021/09/08 21:21:03;;;;;;;17.75;8.60;;;;;;;;;;4973911;28;20054;-85
2021/09/08 21:23:30;;;;;;;16.10;8.35;;;;;;;;;;4973970;28;20027;-86
2021/09/08 21:25:56;;;;;;;19.38;8.85;;;;;;;;;;4974556;28;20037;-87
2021/09/08 21:28:23;;;;;;;18.38;7.80;;;;;;;;;;4977744;28;20034;-87
2021/09/08 21:30:49;;;;;;;20.38;9.02;;;;;;;;;;4978086;28;20023;-87
2021/09/08 21:33:15;;;;;;;14.80;7.45;;;;;;;;;;4977864;28;20513;-86
2021/09/08 21:35:41;;;;;;;16.63;8.25;;;;;;;;;;4977822;28;20058;-86
2021/09/08 21:38:07;;;;;;;18.98;8.10;;;;;;;;;;4977656;28;20066;-87
2021/09/08 21:40:33;;;;;;;15.40;7.13;;;;;;;;;;4978448;28;20416;-85
2021/09/08 21:43:02;;;;;;;15.52;7.50;;;;;;;;;;4978185;28;20030;-88
2021/09/08 21:45:28;;;;;;;16.27;8.18;;;;;;;;;;4978425;28;20031;-85
2021/09/08 21:47:57;;;;;;;17.60;8.65;;;;;;;;;;4978102;28;20023;-86
2021/09/08 21:50:23;;;;;;;16.42;7.53;;;;;;;;;;4977834;28;20033;-87
2021/09/08 21:52:50;;;;;;;15.80;6.88;;;;;;;;;;4978010;28;20031;-86
2021/09/08 21:55:16;;;;;;;15.35;6.63;;;;;;;;;;4978021;28;20483;-86
2021/09/08 21:57:42;;;;;;;11.57;6.72;;;;;;;;;;4977457;28;20023;-88
2021/09/08 22:00:15;;;;;;;11.77;6.40;;;;;;;;;;4977548;28;20479;-87
2021/09/08 22:02:42;;;;;;;12.02;6.13;;;;;;;;;;4977417;28;20519;-86
2021/09/08 22:05:10;;;;;;;15.40;6.00;;;;;;;;;;4984763;28;20050;-84
2021/09/08 22:07:36;;;;;;;10.35;4.93;;;;;;;;;;4990869;28;20118;-87
2021/09/08 22:10:02;;;;;;;13.10;5.97;;;;;;;;;;4977420;28;20034;-87
2021/09/08 22:12:28;;;;;;;9.93;6.13;;;;;;;;;;4977626;28;20034;-92
2021/09/08 22:14:54;;;;;;;12.10;5.90;;;;;;;;;;4976949;28;20058;-87
2021/09/08 22:17:20;;;;;;;16.35;7.15;;;;;;;;;;4977094;28;20050;-86
2021/09/08 22:19:46;;;;;;;10.73;5.72;;;;;;;;;;4976969;28;20031;-94
2021/09/08 22:22:12;;;;;;;9.77;5.72;;;;;;;;;;4976750;28;20086;-86
2021/09/08 22:24:39;;;;;;;11.15;5.65;;;;;;;;;;4976857;28;20027;-87
2021/09/08 22:27:05;;;;;;;10.35;6.03;;;;;;;;;;4976830;28;20027;-85
2021/09/08 22:29:31;;;;;;;13.23;5.22;;;;;;;;;;4976945;28;20027;-86
2021/09/08 22:31:57;;;;;;;14.00;6.07;;;;;;;;;;4976622;28;20077;-85
2021/09/08 22:34:23;;;;;;;9.85;4.97;;;;;;;;;;4976993;28;20043;-88
2021/09/08 22:36:49;;;;;;;8.93;5.22;;;;;;;;;;4977366;28;20042;-87
2021/09/08 22:39:15;;;;;;;9.82;5.15;;;;;;;;;;4976036;28;20026;-87
2021/09/08 22:41:42;;;;;;;11.00;5.55;;;;;;;;;;4976503;28;20022;-86
2021/09/08 22:44:09;;;;;;;10.27;4.63;;;;;;;;;;4976571;28;20034;-88
2021/09/08 22:46:35;;;;;;;12.13;4.68;;;;;;;;;;4976412;28;20035;-86
2021/09/08 22:49:01;;;;;;;10.70;5.75;;;;;;;;;;4976269;28;20138;-86
2021/09/08 22:51:27;;;;;;;9.90;5.90;;;;;;;;;;4976374;28;20494;-87
2021/09/08 22:53:53;;;;;;;7.57;4.07;;;;;;;;;;4976244;28;20039;-86
2021/09/08 22:56:19;;;;;;;13.43;4.80;;;;;;;;;;4976143;28;20161;-86
2021/09/08 22:58:46;;;;;;;10.02;4.38;;;;;;;;;;4976387;28;20030;-87
2021/09/08 23:01:12;;;;;;;9.95;4.80;;;;;;;;;;4977489;28;20027;-94
2021/09/08 23:03:38;;;;;;;9.75;5.40;;;;;;;;;;4976219;28;20037;-85
2021/09/08 23:06:05;;;;;;;10.70;5.35;;;;;;;;;;4976232;28;20030;-87
2021/09/08 23:08:31;;;;;;;12.25;5.35;;;;;;;;;;4976678;28;20491;-86
2021/09/08 23:10:57;;;;;;;8.75;4.93;;;;;;;;;;4976102;28;20054;-91
2021/09/08 23:13:23;;;;;;;11.23;4.68;;;;;;;;;;4976377;28;20086;-86
2021/09/08 23:15:50;;;;;;;7.63;4.57;;;;;;;;;;4976984;28;20381;-86
2021/09/08 23:18:16;;;;;;;8.40;4.50;;;;;;;;;;4975628;28;20472;-89
2021/09/08 23:20:42;;;;;;;8.15;4.32;;;;;;;;;;4975915;28;20113;-93
2021/09/08 23:23:09;;;;;;;11.60;4.95;;;;;;;;;;4975843;28;20023;-87
2021/09/08 23:25:35;;;;;;;11.68;5.07;;;;;;;;;;4975782;28;20031;-86
2021/09/08 23:28:01;;;;;;;9.52;4.57;;;;;;;;;;4976184;28;20066;-87
2021/09/08 23:30:27;;;;;;;18.17;4.97;;;;;;;;;;4975712;28;20081;-86
2021/09/08 23:32:53;;;;;;;8.80;4.10;;;;;;;;;;4975670;28;20726;-86
2021/09/08 23:35:20;;;;;;;9.00;5.05;;;;;;;;;;4975277;28;20545;-93
2021/09/08 23:37:46;;;;;;;11.30;4.32;;;;;;;;;;4975457;28;20058;-92
2021/09/08 23:40:12;;;;;;;12.85;5.40;;;;;;;;;;4975531;28;20030;-86
2021/09/08 23:42:38;;;;;;;8.98;4.75;;;;;;;;;;4975591;28;20526;-87
2021/09/08 23:45:05;;;;;;;10.35;5.32;;;;;;;;;;4975329;28;20023;-88
2021/09/08 23:47:31;;;;;;;11.35;4.82;;;;;;;;;;4975947;28;20062;-86
2021/09/08 23:49:57;;;;;;;11.05;5.28;;;;;;;;;;4975446;28;20031;-87
2021/09/08 23:52:24;;;;;;;10.15;5.13;;;;;;;;;;4975234;28;20085;-87
2021/09/08 23:54:51;;;;;;;9.65;4.78;;;;;;;;;;4976922;28;20035;-85
2021/09/08 23:57:17;;;;;;;10.80;4.63;;;;;;;;;;4975102;28;20031;-87
2021/09/08 23:59:43;;;;;;;9.50;5.28;;;;;;;;;;4984006;28;20058;-85
